createdAt,value
2019-05-08T00:00:02.464Z,26.45
2019-05-08T00:02:32.655Z,23.98
2019-05-08T00:05:02.562Z,22.70
2019-05-08T00:07:33.832Z,23.98
2019-05-08T00:10:03.582Z,26.05
2019-05-08T00:12:33.137Z,20.43
2019-05-08T00:15:03.299Z,24.02
2019-05-08T00:17:32.817Z,23.65
2019-05-08T00:20:03.012Z,24.57
2019-05-08T00:22:32.646Z,28.38
2019-05-08T00:25:02.891Z,32.83
2019-05-08T00:27:33.166Z,33.02
2019-05-08T00:30:02.796Z,29.57
2019-05-08T00:32:43.759Z,22.48
2019-05-08T00:35:18.378Z,27.27
2019-05-08T00:37:47.996Z,22.77
2019-05-08T00:40:17.996Z,21.07
2019-05-08T00:42:47.678Z,22.85
2019-05-08T00:45:17.208Z,27.20
2019-05-08T00:47:59.767Z,21.25
2019-05-08T00:50:17.856Z,21.20
2019-05-08T00:52:47.419Z,26.75
2019-05-08T00:55:19.652Z,21.77
2019-05-08T00:57:53.830Z,21.55
2019-05-08T01:00:35.934Z,23.57
2019-05-08T01:03:05.476Z,21.15
2019-05-08T01:05:34.948Z,25.70
2019-05-08T01:08:04.558Z,27.65
2019-05-08T01:10:34.578Z,25.23
2019-05-08T01:13:04.355Z,19.98
2019-05-08T01:15:33.965Z,18.67
2019-05-08T01:18:03.534Z,20.62
2019-05-08T01:20:33.094Z,18.90
2019-05-08T01:23:02.958Z,23.57
2019-05-08T01:25:32.661Z,18.27
2019-05-08T01:28:02.990Z,19.07
2019-05-08T01:30:32.892Z,16.90
2019-05-08T01:33:02.803Z,27.30
2019-05-08T01:35:32.643Z,23.30
2019-05-08T01:38:22.944Z,24.35
2019-05-08T01:40:58.509Z,19.82
2019-05-08T01:43:27.943Z,16.60
2019-05-08T01:45:57.402Z,25.70
2019-05-08T01:48:27.162Z,28.40
2019-05-08T01:50:56.462Z,21.07
2019-05-08T01:53:26.030Z,22.00
2019-05-08T01:55:55.581Z,20.25
2019-05-08T01:58:24.806Z,24.95
2019-05-08T02:00:54.725Z,26.55
2019-05-08T02:03:24.330Z,20.00
2019-05-08T02:05:53.838Z,22.32
2019-05-08T02:08:23.447Z,16.30
2019-05-08T02:10:53.057Z,21.25
2019-05-08T02:13:22.912Z,17.15
2019-05-08T02:15:52.914Z,16.00
2019-05-08T02:18:23.128Z,17.07
2019-05-08T02:21:12.195Z,23.25
2019-05-08T02:24:02.121Z,18.27
2019-05-08T02:26:56.469Z,22.62
2019-05-08T02:29:25.808Z,20.35
2019-05-08T02:31:55.420Z,19.85
2019-05-08T02:34:24.823Z,20.02
2019-05-08T02:37:02.252Z,21.62
2019-05-08T02:39:25.950Z,19.00
2019-05-08T02:41:55.597Z,20.02
2019-05-08T02:44:25.736Z,23.40
2019-05-08T02:46:55.367Z,24.30
2019-05-08T02:49:25.354Z,16.10
2019-05-08T02:51:54.576Z,15.23
2019-05-08T02:54:24.183Z,16.80
2019-05-08T02:56:59.925Z,20.68
2019-05-08T02:59:30.981Z,28.10
2019-05-08T03:02:09.811Z,18.27
2019-05-08T03:04:40.368Z,18.05
2019-05-08T03:07:10.747Z,17.87
2019-05-08T03:09:41.312Z,21.45
2019-05-08T03:12:16.624Z,17.65
2019-05-08T03:14:46.507Z,15.25
2019-05-08T03:17:16.522Z,16.10
2019-05-08T03:19:46.135Z,19.87
2019-05-08T03:22:15.734Z,31.42
2019-05-08T03:24:54.740Z,25.82
2019-05-08T03:27:21.460Z,17.48
2019-05-08T03:29:51.154Z,17.60
2019-05-08T03:32:23.272Z,20.97
2019-05-08T03:34:54.774Z,22.13
2019-05-08T03:37:21.577Z,20.23
2019-05-08T03:39:51.134Z,21.12
2019-05-08T03:42:21.105Z,22.15
2019-05-08T03:44:52.216Z,18.40
2019-05-08T03:47:31.398Z,17.12
2019-05-08T03:50:01.258Z,17.70
2019-05-08T03:52:31.194Z,17.20
2019-05-08T03:55:01.378Z,18.67
2019-05-08T03:57:31.104Z,19.70
2019-05-08T04:00:02.093Z,36.73
2019-05-08T04:02:32.491Z,19.10
2019-05-08T04:05:01.999Z,20.20
2019-05-08T04:07:31.498Z,17.98
2019-05-08T04:10:02.614Z,15.70
2019-05-08T04:12:32.519Z,16.65
2019-05-08T04:15:02.732Z,17.67
2019-05-08T04:17:41.499Z,23.42
2019-05-08T04:20:11.405Z,20.45
2019-05-08T04:22:45.779Z,26.02
2019-05-08T04:25:12.639Z,24.55
2019-05-08T04:27:42.066Z,22.67
2019-05-08T04:30:11.879Z,24.00
2019-05-08T04:32:41.254Z,23.42
2019-05-08T04:35:12.227Z,15.65
2019-05-08T04:37:42.006Z,17.17
2019-05-08T04:40:11.635Z,18.10
2019-05-08T04:42:41.133Z,23.45
2019-05-08T04:45:11.776Z,20.60
2019-05-08T04:47:45.582Z,23.22
2019-05-08T04:50:16.566Z,19.52
2019-05-08T04:53:10.870Z,24.07
2019-05-08T04:55:41.582Z,18.80
2019-05-08T04:58:11.946Z,19.57
2019-05-08T05:00:42.978Z,16.65
2019-05-08T05:03:12.700Z,20.00
2019-05-08T05:05:41.997Z,20.32
2019-05-08T05:08:11.697Z,17.70
2019-05-08T05:10:41.524Z,15.75
2019-05-08T05:13:11.299Z,18.45
2019-05-08T05:15:44.906Z,16.42
2019-05-08T05:18:14.968Z,23.70
2019-05-08T05:20:44.220Z,16.77
2019-05-08T05:23:19.669Z,15.35
2019-05-08T05:25:49.423Z,13.53
2019-05-08T05:28:20.080Z,15.53
2019-05-08T05:30:50.235Z,17.30
2019-05-08T05:33:19.676Z,14.93
2019-05-08T05:35:49.390Z,16.17
2019-05-08T05:38:19.456Z,18.55
2019-05-08T05:40:55.553Z,23.42
2019-05-08T05:43:29.664Z,20.27
2019-05-08T05:45:59.571Z,13.95
2019-05-08T05:48:29.841Z,15.65
2019-05-08T05:50:59.495Z,16.82
2019-05-08T05:53:29.263Z,19.00
2019-05-08T05:55:59.707Z,14.73
2019-05-08T05:58:29.853Z,16.70
2019-05-08T06:01:11.887Z,16.80
2019-05-08T06:03:40.919Z,19.32
2019-05-08T06:06:09.890Z,18.27
2019-05-08T06:08:39.379Z,16.15
2019-05-08T06:11:09.923Z,16.87
2019-05-08T06:13:40.410Z,19.25
2019-05-08T06:16:16.632Z,11.63
2019-05-08T06:18:45.649Z,16.77
2019-05-08T06:21:14.719Z,14.75
2019-05-08T06:23:43.623Z,14.38
2019-05-08T06:26:12.566Z,12.35
2019-05-08T06:28:41.542Z,13.88
2019-05-08T06:31:10.407Z,14.93
2019-05-08T06:33:40.409Z,14.93
2019-05-08T06:36:09.688Z,11.50
2019-05-08T06:38:40.188Z,12.98
2019-05-08T06:41:10.015Z,17.77
2019-05-08T06:44:04.377Z,16.02
2019-05-08T06:47:09.829Z,17.23
2019-05-08T06:49:40.145Z,18.32
2019-05-08T06:52:10.025Z,18.73
2019-05-08T06:54:39.947Z,18.07
2019-05-08T06:57:09.905Z,14.35
2019-05-08T06:59:39.288Z,15.15
2019-05-08T07:02:10.392Z,21.10
2019-05-08T07:04:39.909Z,13.72
2019-05-08T07:07:09.776Z,14.18
2019-05-08T07:09:45.338Z,18.27
2019-05-08T07:12:09.925Z,16.12
2019-05-08T07:14:39.709Z,16.90
2019-05-08T07:17:33.862Z,13.38
2019-05-08T07:20:20.220Z,12.60
2019-05-08T07:22:49.934Z,22.45
2019-05-08T07:25:19.968Z,15.23
2019-05-08T07:28:07.044Z,19.50
2019-05-08T07:30:50.117Z,13.95
2019-05-08T07:33:20.544Z,20.62
2019-05-08T07:35:49.914Z,14.98
2019-05-08T07:38:19.386Z,19.25
2019-05-08T07:40:50.324Z,14.83
2019-05-08T07:43:20.258Z,17.63
2019-05-08T07:45:49.827Z,16.27
2019-05-08T07:48:20.521Z,17.75
2019-05-08T07:50:50.339Z,13.10
2019-05-08T07:53:20.326Z,15.00
2019-05-08T07:55:50.420Z,21.07
2019-05-08T07:58:20.800Z,11.33
2019-05-08T08:00:50.538Z,17.13
2019-05-08T08:03:31.170Z,14.30
2019-05-08T08:06:14.859Z,15.83
2019-05-08T08:08:44.009Z,12.20
2019-05-08T08:11:13.130Z,11.00
2019-05-08T08:13:42.214Z,10.90
2019-05-08T08:16:14.802Z,7.40
2019-05-08T08:18:43.953Z,9.30
2019-05-08T08:21:12.951Z,12.50
2019-05-08T08:23:41.887Z,12.10
2019-05-08T08:26:11.795Z,11.90
2019-05-08T08:28:41.092Z,9.33
2019-05-08T08:31:10.121Z,9.90
2019-05-08T08:33:52.238Z,13.20
2019-05-08T08:36:11.871Z,8.20
2019-05-08T08:38:40.513Z,11.50
2019-05-08T08:41:10.290Z,9.23
2019-05-08T08:43:40.002Z,7.10
2019-05-08T08:46:39.910Z,10.40
2019-05-08T08:49:10.425Z,7.47
2019-05-08T08:51:52.231Z,8.30
2019-05-08T08:54:21.458Z,9.30
2019-05-08T08:56:50.589Z,8.70
2019-05-08T08:59:19.978Z,9.47
2019-05-08T09:01:49.551Z,7.47
2019-05-08T09:04:19.638Z,9.23
2019-05-08T09:06:50.059Z,12.83
2019-05-08T09:09:19.616Z,11.20
2019-05-08T09:11:50.630Z,16.10
2019-05-08T09:14:20.015Z,6.33
2019-05-08T09:16:49.887Z,5.27
2019-05-08T09:19:19.964Z,5.20
2019-05-08T09:21:49.755Z,12.17
2019-05-08T09:24:20.171Z,6.57
2019-05-08T09:26:49.407Z,4.50
2019-05-08T09:29:20.339Z,10.17
2019-05-08T09:32:02.040Z,6.30
2019-05-08T09:34:40.813Z,6.33
2019-05-08T09:37:20.076Z,6.57
2019-05-08T09:39:49.968Z,7.50
2019-05-08T09:42:19.459Z,6.93
2019-05-08T09:44:49.370Z,4.83
2019-05-08T09:47:40.477Z,6.60
2019-05-08T09:50:32.115Z,10.43
2019-05-08T09:53:01.681Z,5.20
2019-05-08T09:55:31.200Z,16.53
2019-05-08T09:58:00.569Z,6.70
2019-05-08T10:00:41.722Z,5.90
2019-05-08T10:03:10.818Z,10.63
2019-05-08T10:05:40.466Z,6.00
2019-05-08T10:08:09.970Z,11.60
2019-05-08T10:10:39.749Z,12.77
2019-05-08T10:13:09.186Z,6.17
2019-05-08T10:15:40.206Z,4.73
2019-05-08T10:18:10.079Z,6.97
2019-05-08T10:20:40.091Z,13.13
2019-05-08T10:23:10.289Z,9.60
2019-05-08T10:25:47.186Z,6.00
2019-05-08T10:28:10.694Z,7.93
2019-05-08T10:31:00.073Z,7.03
2019-05-08T10:33:29.293Z,9.10
2019-05-08T10:36:10.334Z,6.77
2019-05-08T10:38:39.592Z,3.37
2019-05-08T10:41:16.764Z,7.63
2019-05-08T10:43:45.702Z,5.27
2019-05-08T10:46:14.712Z,7.87
2019-05-08T10:48:43.652Z,11.43
2019-05-08T10:51:12.675Z,9.57
2019-05-08T10:53:41.742Z,8.10
2019-05-08T10:56:10.821Z,6.83
2019-05-08T10:58:40.661Z,9.03
2019-05-08T11:01:09.894Z,6.70
2019-05-08T11:03:40.498Z,5.67
2019-05-08T11:06:34.733Z,7.77
2019-05-08T11:09:10.304Z,12.03
2019-05-08T11:11:57.599Z,7.00
2019-05-08T11:14:26.846Z,4.87
2019-05-08T11:16:55.894Z,5.43
2019-05-08T11:19:24.834Z,4.70
2019-05-08T11:21:53.788Z,6.80
2019-05-08T11:24:22.752Z,5.93
2019-05-08T11:26:51.636Z,5.70
2019-05-08T11:29:20.626Z,7.37
2019-05-08T11:31:52.585Z,7.90
2019-05-08T11:34:20.885Z,7.20
2019-05-08T11:36:51.271Z,4.47
2019-05-08T11:39:20.572Z,4.60
2019-05-08T11:42:00.134Z,6.00
2019-05-08T11:44:52.060Z,5.47
2019-05-08T11:47:21.425Z,6.40
2019-05-08T11:49:50.566Z,5.50
2019-05-08T11:52:22.753Z,6.60
2019-05-08T11:54:52.172Z,6.10
2019-05-08T11:57:21.240Z,5.97
2019-05-08T11:59:50.201Z,4.60
2019-05-08T12:02:20.547Z,4.77
2019-05-08T12:04:50.017Z,6.93
2019-05-08T12:07:19.183Z,4.40
2019-05-08T12:09:50.275Z,5.27
2019-05-08T12:12:19.613Z,4.03
2019-05-08T12:14:49.639Z,5.23
2019-05-08T12:17:31.497Z,4.43
2019-05-08T12:20:00.412Z,5.70
2019-05-08T12:22:29.354Z,8.40
2019-05-08T12:25:00.324Z,4.33
2019-05-08T12:27:29.373Z,6.30
2019-05-08T12:30:23.830Z,8.13
2019-05-08T12:33:07.383Z,5.90
2019-05-08T12:35:40.073Z,5.77
2019-05-08T12:38:10.636Z,5.13
2019-05-08T12:40:40.226Z,6.03
2019-05-08T12:43:11.305Z,5.83
2019-05-08T12:45:40.364Z,5.47
2019-05-08T12:48:10.576Z,10.70
2019-05-08T12:50:44.626Z,4.57
2019-05-08T12:53:13.661Z,8.67
2019-05-08T12:55:53.805Z,9.70
2019-05-08T12:58:21.123Z,6.60
2019-05-08T13:01:21.293Z,7.07
2019-05-08T13:03:46.806Z,14.93
2019-05-08T13:06:21.249Z,11.10
2019-05-08T13:08:54.168Z,7.67
2019-05-08T13:11:10.139Z,6.33
2019-05-08T13:13:42.720Z,10.50
2019-05-08T13:16:10.222Z,6.80
2019-05-08T13:18:40.929Z,10.20
2019-05-08T13:21:10.304Z,7.20
2019-05-08T13:23:40.500Z,10.73
2019-05-08T13:26:10.536Z,8.60
2019-05-08T13:28:39.719Z,8.00
2019-05-08T13:31:09.775Z,9.67
2019-05-08T13:33:39.162Z,10.60
2019-05-08T13:36:10.295Z,15.20
2019-05-08T13:38:46.156Z,9.30
2019-05-08T13:41:14.630Z,8.87
2019-05-08T13:43:44.522Z,22.20
2019-05-08T13:46:16.362Z,18.30
2019-05-08T13:48:45.514Z,14.73
2019-05-08T13:51:23.263Z,13.20
2019-05-08T13:54:04.928Z,27.40
2019-05-08T13:56:35.677Z,15.20
2019-05-08T13:59:05.289Z,16.23
2019-05-08T14:01:35.937Z,10.20
2019-05-08T14:04:05.187Z,12.30
2019-05-08T14:06:34.248Z,8.20
2019-05-08T14:09:03.354Z,11.17
2019-05-08T14:11:32.223Z,14.47
2019-05-08T14:14:01.105Z,9.37
2019-05-08T14:16:30.322Z,9.50
2019-05-08T14:18:59.889Z,17.63
2019-05-08T14:21:29.179Z,9.67
2019-05-08T14:23:59.393Z,12.20
2019-05-08T14:26:28.743Z,17.30
2019-05-08T14:29:01.092Z,10.27
2019-05-08T14:31:30.726Z,10.40
2019-05-08T14:34:09.632Z,14.50
2019-05-08T14:36:40.595Z,13.90
2019-05-08T14:39:11.959Z,11.30
2019-05-08T14:41:41.068Z,14.98
2019-05-08T14:44:10.959Z,12.70
2019-05-08T14:46:40.587Z,11.30
2019-05-08T14:49:09.893Z,10.53
2019-05-08T14:51:39.985Z,12.87
2019-05-08T14:54:15.323Z,12.13
2019-05-08T14:56:40.825Z,10.10
2019-05-08T14:59:10.016Z,12.90
2019-05-08T15:01:40.380Z,15.90
2019-05-08T15:04:09.783Z,17.00
2019-05-08T15:06:39.790Z,12.20
2019-05-08T15:09:10.285Z,13.90
2019-05-08T15:11:39.538Z,9.67
2019-05-08T15:14:09.526Z,12.07
2019-05-08T15:16:40.027Z,16.73
2019-05-08T15:19:10.247Z,10.90
2019-05-08T15:21:39.945Z,14.63
2019-05-08T15:24:10.369Z,12.17
2019-05-08T15:26:40.246Z,14.63
2019-05-08T15:29:36.766Z,10.40
2019-05-08T15:32:12.839Z,15.90
2019-05-08T15:34:41.533Z,14.00
2019-05-08T15:37:10.723Z,12.50
2019-05-08T15:39:40.164Z,14.70
2019-05-08T15:42:21.619Z,10.13
2019-05-08T15:44:50.824Z,9.60
2019-05-08T15:47:41.781Z,13.17
2019-05-08T15:50:17.087Z,15.50
2019-05-08T15:52:46.467Z,12.53
2019-05-08T15:55:15.706Z,11.20
2019-05-08T15:57:45.289Z,17.33
2019-05-08T16:00:16.758Z,11.60
2019-05-08T16:02:45.861Z,16.63
2019-05-08T16:05:15.930Z,12.70
2019-05-08T16:07:45.099Z,10.93
2019-05-08T16:10:14.719Z,11.93
2019-05-08T16:12:44.045Z,14.00
2019-05-08T16:15:14.725Z,9.83
2019-05-08T16:17:44.170Z,13.93
2019-05-08T16:20:13.510Z,10.97
2019-05-08T16:22:46.378Z,10.97
2019-05-08T16:25:14.289Z,11.10
2019-05-08T16:27:43.401Z,12.80
2019-05-08T16:30:37.429Z,11.20
2019-05-08T16:33:25.708Z,11.93
2019-05-08T16:35:55.132Z,9.10
2019-05-08T16:38:24.219Z,12.80
2019-05-08T16:40:54.457Z,15.30
2019-05-08T16:43:23.607Z,12.97
2019-05-08T16:45:53.500Z,10.50
2019-05-08T16:48:44.538Z,11.10
2019-05-08T16:51:14.296Z,14.27
2019-05-08T16:53:43.875Z,11.47
2019-05-08T16:56:17.763Z,11.30
2019-05-08T16:58:47.556Z,10.53
2019-05-08T17:01:17.615Z,12.10
2019-05-08T17:03:47.023Z,12.90
2019-05-08T17:06:16.262Z,14.80
2019-05-08T17:08:45.827Z,17.67
2019-05-08T17:11:15.226Z,12.20
2019-05-08T17:13:44.734Z,16.57
2019-05-08T17:16:14.081Z,10.73
2019-05-08T17:18:44.590Z,13.67
2019-05-08T17:21:25.840Z,14.90
2019-05-08T17:23:59.652Z,17.23
2019-05-08T17:26:28.920Z,13.87
2019-05-08T17:29:04.233Z,14.40
2019-05-08T17:31:35.534Z,20.60
2019-05-08T17:34:05.351Z,15.83
2019-05-08T17:36:46.899Z,14.30
2019-05-08T17:39:35.176Z,16.77
2019-05-08T17:42:04.684Z,25.63
2019-05-08T17:44:34.190Z,13.43
2019-05-08T17:47:09.824Z,14.53
2019-05-08T17:49:39.341Z,12.90
2019-05-08T17:52:08.688Z,20.13
2019-05-08T17:54:38.051Z,12.67
2019-05-08T17:57:07.328Z,19.43
2019-05-08T17:59:36.572Z,10.73
2019-05-08T18:02:05.735Z,15.93
2019-05-08T18:04:35.012Z,14.03
2019-05-08T18:07:04.551Z,14.60
2019-05-08T18:09:34.148Z,10.93
2019-05-08T18:12:04.028Z,9.50
2019-05-08T18:14:33.716Z,11.80
2019-05-08T18:17:23.537Z,10.70
2019-05-08T18:20:20.652Z,8.77
2019-05-08T18:23:07.134Z,10.53
2019-05-08T18:25:44.909Z,9.87
2019-05-08T18:28:14.222Z,15.67
2019-05-08T18:30:53.942Z,11.30
2019-05-08T18:33:23.043Z,8.93
2019-05-08T18:35:53.258Z,17.50
2019-05-08T18:38:23.600Z,41.70
2019-05-08T18:40:53.785Z,12.67
2019-05-08T18:43:24.035Z,12.10
2019-05-08T18:53:59.318Z,15.30
2019-05-08T18:56:28.529Z,12.90
2019-05-08T18:59:10.176Z,10.93
2019-05-08T19:01:43.155Z,17.83
2019-05-08T19:04:13.658Z,12.50
2019-05-08T19:06:43.596Z,16.03
2019-05-08T19:09:13.764Z,11.10
2019-05-08T19:11:44.717Z,12.50
2019-05-08T19:14:16.170Z,10.10
2019-05-08T19:16:46.172Z,11.30
2019-05-08T19:19:24.652Z,12.10
2019-05-08T19:21:56.147Z,14.00
2019-05-08T19:24:24.079Z,12.87
2019-05-08T19:26:53.259Z,11.40
2019-05-08T19:29:24.044Z,11.83
2019-05-08T19:31:53.867Z,9.30
2019-05-08T19:34:23.439Z,14.30
2019-05-08T19:36:53.833Z,11.43
2019-05-08T19:39:24.435Z,10.70
2019-05-08T19:41:53.748Z,9.43
2019-05-08T19:44:23.444Z,16.07
2019-05-08T19:46:53.262Z,9.93
2019-05-08T19:49:23.649Z,16.50
2019-05-08T19:51:54.136Z,11.55
2019-05-08T19:54:24.330Z,12.90
2019-05-08T19:56:53.695Z,9.53
2019-05-08T19:59:24.197Z,16.23
2019-05-08T20:01:55.954Z,12.50
2019-05-08T20:04:36.460Z,11.97
2019-05-08T20:06:55.160Z,11.77
2019-05-08T20:09:24.235Z,14.50
2019-05-08T20:11:53.555Z,11.97
2019-05-08T20:14:23.637Z,9.80
2019-05-08T20:16:54.221Z,10.27
2019-05-08T20:19:31.054Z,12.93
2019-05-08T20:22:03.549Z,11.93
2019-05-08T20:24:34.023Z,12.67
2019-05-08T20:27:04.106Z,11.50
2019-05-08T20:29:33.830Z,9.55
2019-05-08T20:32:03.557Z,8.33
2019-05-08T20:34:35.597Z,11.10
2019-05-08T20:37:04.031Z,10.70
2019-05-08T20:39:33.242Z,10.95
2019-05-08T20:42:02.363Z,11.40
2019-05-08T20:44:33.482Z,11.70
2019-05-08T20:47:04.202Z,8.60
2019-05-08T20:49:33.065Z,12.43
2019-05-08T20:52:03.946Z,10.15
2019-05-08T20:54:33.198Z,10.50
2019-05-08T20:57:02.777Z,13.20
2019-05-08T20:59:33.359Z,14.73
2019-05-08T21:02:04.292Z,10.17
2019-05-08T21:04:34.160Z,10.53
2019-05-08T21:07:03.799Z,10.40
2019-05-08T21:09:33.708Z,12.07
2019-05-08T21:12:04.848Z,12.77
2019-05-08T21:14:34.287Z,13.67
2019-05-08T21:17:04.093Z,16.73
2019-05-08T21:19:34.162Z,11.20
2019-05-08T21:22:33.646Z,18.07
2019-05-08T21:25:04.387Z,19.97
2019-05-08T21:27:33.940Z,10.93
2019-05-08T21:30:04.045Z,15.28
2019-05-08T21:32:33.191Z,15.25
2019-05-08T21:35:04.216Z,15.83
2019-05-08T21:37:33.898Z,9.70
2019-05-08T21:40:05.245Z,11.35
2019-05-08T21:42:34.007Z,9.25
2019-05-08T21:45:03.392Z,12.43
2019-05-08T21:47:33.952Z,14.10
2019-05-08T21:50:04.118Z,14.35
2019-05-08T21:52:48.530Z,13.55
2019-05-08T21:55:18.211Z,10.50
2019-05-08T21:57:49.536Z,11.13
2019-05-08T22:00:22.046Z,19.82
2019-05-08T22:02:56.797Z,20.32
2019-05-08T22:05:26.135Z,11.25
2019-05-08T22:07:55.529Z,8.83
2019-05-08T22:10:24.915Z,7.65
2019-05-08T22:12:54.157Z,8.10
2019-05-08T22:15:23.345Z,9.85
2019-05-08T22:17:52.805Z,7.40
2019-05-08T22:20:28.388Z,6.67
2019-05-08T22:22:59.433Z,10.40
2019-05-08T22:25:28.492Z,9.95
2019-05-08T22:27:57.788Z,8.20
2019-05-08T22:30:27.469Z,6.55
2019-05-08T22:32:57.075Z,5.42
2019-05-08T22:35:28.222Z,5.40
2019-05-08T22:37:59.674Z,4.12
2019-05-08T22:40:30.497Z,8.48
2019-05-08T22:42:59.856Z,14.33
2019-05-08T22:45:29.645Z,6.40
2019-05-08T22:47:59.459Z,5.95
2019-05-08T22:50:29.226Z,7.35
2019-05-08T22:52:58.679Z,5.20
2019-05-08T22:55:27.730Z,7.23
2019-05-08T22:57:57.070Z,6.78
2019-05-08T23:00:30.979Z,7.85
2019-05-08T23:03:00.207Z,8.08
2019-05-08T23:05:29.525Z,5.47
2019-05-08T23:07:58.497Z,5.65
2019-05-08T23:10:27.600Z,4.97
2019-05-08T23:13:14.838Z,4.72
2019-05-08T23:15:46.299Z,4.42
2019-05-08T23:18:15.430Z,4.62
2019-05-08T23:20:44.728Z,2.55
2019-05-08T23:23:15.891Z,2.77
2019-05-08T23:25:47.103Z,3.83
2019-05-08T23:28:16.517Z,2.42
2019-05-08T23:30:46.783Z,5.85
2019-05-08T23:33:16.387Z,5.00
2019-05-08T23:35:56.464Z,4.50
2019-05-08T23:38:25.551Z,3.85
2019-05-08T23:40:54.669Z,3.05
2019-05-08T23:43:41.906Z,4.50
2019-05-08T23:46:13.459Z,6.80
2019-05-08T23:48:44.028Z,4.30
2019-05-08T23:51:14.115Z,4.03
2019-05-08T23:53:43.581Z,2.50
2019-05-08T23:56:14.165Z,3.08
2019-05-08T23:58:44.392Z,4.45
